sensor_id;sensor_type;location;lat;lon;timestamp;temperature;humidity
52397;DHT22;38322;53.108;6.308;2023-05-23T05:02:20;11.30;99.90
52397;DHT22;38322;53.108;6.308;2023-05-23T05:04:46;11.20;99.90
52397;DHT22;38322;53.108;6.308;2023-05-23T05:07:12;11.20;99.90
52397;DHT22;38322;53.108;6.308;2023-05-23T05:09:38;11.20;99.90
52397;DHT22;38322;53.108;6.308;2023-05-23T05:12:04;11.20;99.90
52397;DHT22;38322;53.108;6.308;2023-05-23T05:14:30;11.20;99.90
52397;DHT22;38322;53.108;6.308;2023-05-23T05:16:56;11.20;99.90
52397;DHT22;38322;53.108;6.308;2023-05-23T05:19:22;11.20;99.90
52397;DHT22;38322;53.108;6.308;2023-05-23T05:21:49;11.10;99.90
52397;DHT22;38322;53.108;6.308;2023-05-23T05:24:15;11.20;99.90
52397;DHT22;38322;53.108;6.308;2023-05-23T05:26:41;11.10;99.90
52397;DHT22;38322;53.108;6.308;2023-05-23T05:29:07;11.10;99.90
52397;DHT22;38322;53.108;6.308;2023-05-23T05:31:33;11.10;99.90
52397;DHT22;38322;53.108;6.308;2023-05-23T05:34:00;11.10;99.90
52397;DHT22;38322;53.108;6.308;2023-05-23T05:36:26;11.00;99.90
52397;DHT22;38322;53.108;6.308;2023-05-23T05:38:52;11.00;99.90
52397;DHT22;38322;53.108;6.308;2023-05-23T05:41:17;11.00;99.90
52397;DHT22;38322;53.108;6.308;2023-05-23T05:43:43;11.00;99.90
52397;DHT22;38322;53.108;6.308;2023-05-23T05:46:10;11.10;99.90
52397;DHT22;38322;53.108;6.308;2023-05-23T05:48:36;11.00;99.90
52397;DHT22;38322;53.108;6.308;2023-05-23T05:51:02;11.00;99.90
52397;DHT22;38322;53.108;6.308;2023-05-23T05:53:28;11.10;99.90
52397;DHT22;38322;53.108;6.308;2023-05-23T05:55:54;11.10;99.90
52397;DHT22;38322;53.108;6.308;2023-05-23T05:58:20;11.00;99.90
52397;DHT22;38322;53.108;6.308;2023-05-23T06:00:46;11.10;99.90
52397;DHT22;38322;53.108;6.308;2023-05-23T06:03:13;11.10;99.90
52397;DHT22;38322;53.108;6.308;2023-05-23T06:05:40;11.10;99.90
52397;DHT22;38322;53.108;6.308;2023-05-23T06:08:06;11.10;99.90
52397;DHT22;38322;53.108;6.308;2023-05-23T06:10:32;11.10;99.90
52397;DHT22;38322;53.108;6.308;2023-05-23T06:12:58;11.00;99.90
52397;DHT22;38322;53.108;6.308;2023-05-23T06:15:25;11.10;99.90
52397;DHT22;38322;53.108;6.308;2023-05-23T06:17:51;11.10;99.90
52397;DHT22;38322;53.108;6.308;2023-05-23T06:20:17;11.00;99.90
52397;DHT22;38322;53.108;6.308;2023-05-23T06:22:42;11.00;99.90
52397;DHT22;38322;53.108;6.308;2023-05-23T06:25:08;11.00;99.90
52397;DHT22;38322;53.108;6.308;2023-05-23T06:27:34;10.90;99.90
52397;DHT22;38322;53.108;6.308;2023-05-23T06:30:02;10.90;99.90
52397;DHT22;38322;53.108;6.308;2023-05-23T06:32:28;11.00;99.90
52397;DHT22;38322;53.108;6.308;2023-05-23T06:34:54;11.00;99.90
52397;DHT22;38322;53.108;6.308;2023-05-23T06:37:20;11.00;99.90
52397;DHT22;38322;53.108;6.308;2023-05-23T06:39:45;11.10;99.90
52397;DHT22;38322;53.108;6.308;2023-05-23T06:42:11;11.10;99.90
52397;DHT22;38322;53.108;6.308;2023-05-23T06:44:37;11.20;99.90
52397;DHT22;38322;53.108;6.308;2023-05-23T06:47:03;11.20;99.90
52397;DHT22;38322;53.108;6.308;2023-05-23T06:49:29;11.30;99.90
52397;DHT22;38322;53.108;6.308;2023-05-23T06:51:55;11.30;99.90
52397;DHT22;38322;53.108;6.308;2023-05-23T06:54:20;11.40;99.90
52397;DHT22;38322;53.108;6.308;2023-05-23T06:56:46;11.50;99.90
52397;DHT22;38322;53.108;6.308;2023-05-23T06:59:12;11.50;99.90
52397;DHT22;38322;53.108;6.308;2023-05-23T07:01:38;11.60;99.90
52397;DHT22;38322;53.108;6.308;2023-05-23T07:04:04;11.60;99.90
52397;DHT22;38322;53.108;6.308;2023-05-23T07:06:30;11.60;99.90
52397;DHT22;38322;53.108;6.308;2023-05-23T07:08:55;11.70;99.90
52397;DHT22;38322;53.108;6.308;2023-05-23T07:11:21;11.70;99.90
52397;DHT22;38322;53.108;6.308;2023-05-23T07:13:47;11.80;99.90
52397;DHT22;38322;53.108;6.308;2023-05-23T07:16:13;11.80;99.90
52397;DHT22;38322;53.108;6.308;2023-05-23T07:18:39;11.70;99.90
52397;DHT22;38322;53.108;6.308;2023-05-23T07:21:05;11.70;99.90
52397;DHT22;38322;53.108;6.308;2023-05-23T07:23:32;11.70;99.90
52397;DHT22;38322;53.108;6.308;2023-05-23T07:25:59;11.70;99.90
52397;DHT22;38322;53.108;6.308;2023-05-23T07:28:25;11.60;99.90
52397;DHT22;38322;53.108;6.308;2023-05-23T07:30:51;11.60;99.90
52397;DHT22;38322;53.108;6.308;2023-05-23T07:33:17;11.60;99.90
52397;DHT22;38322;53.108;6.308;2023-05-23T07:35:43;11.70;99.90
52397;DHT22;38322;53.108;6.308;2023-05-23T07:38:09;11.70;99.90
52397;DHT22;38322;53.108;6.308;2023-05-23T07:40:35;11.70;99.90
52397;DHT22;38322;53.108;6.308;2023-05-23T07:43:03;11.60;99.90
52397;DHT22;38322;53.108;6.308;2023-05-23T07:45:29;11.70;99.90
52397;DHT22;38322;53.108;6.308;2023-05-23T07:47:55;11.80;99.90
52397;DHT22;38322;53.108;6.308;2023-05-23T07:50:20;11.80;99.90
52397;DHT22;38322;53.108;6.308;2023-05-23T07:52:46;11.80;99.90
52397;DHT22;38322;53.108;6.308;2023-05-23T07:55:12;11.90;99.90
52397;DHT22;38322;53.108;6.308;2023-05-23T07:57:38;12.00;99.90
52397;DHT22;38322;53.108;6.308;2023-05-23T08:00:04;12.20;99.90
52397;DHT22;38322;53.108;6.308;2023-05-23T08:02:31;12.20;99.90
52397;DHT22;38322;53.108;6.308;2023-05-23T08:04:57;12.20;99.90
52397;DHT22;38322;53.108;6.308;2023-05-23T08:07:24;12.20;99.90
52397;DHT22;38322;53.108;6.308;2023-05-23T08:09:50;12.30;99.90
52397;DHT22;38322;53.108;6.308;2023-05-23T08:12:16;12.30;99.90
52397;DHT22;38322;53.108;6.308;2023-05-23T08:14:41;12.40;99.90
52397;DHT22;38322;53.108;6.308;2023-05-23T08:17:07;12.50;99.90
52397;DHT22;38322;53.108;6.308;2023-05-23T08:19:33;12.50;99.90
52397;DHT22;38322;53.108;6.308;2023-05-23T08:21:59;12.50;99.90
52397;DHT22;38322;53.108;6.308;2023-05-23T08:24:24;12.50;99.90
52397;DHT22;38322;53.108;6.308;2023-05-23T08:26:51;12.60;99.90
52397;DHT22;38322;53.108;6.308;2023-05-23T08:29:17;12.80;99.90
52397;DHT22;38322;53.108;6.308;2023-05-23T08:31:43;12.90;99.90
52397;DHT22;38322;53.108;6.308;2023-05-23T08:34:09;13.00;99.90
52397;DHT22;38322;53.108;6.308;2023-05-23T08:36:35;13.20;99.90
52397;DHT22;38322;53.108;6.308;2023-05-23T08:39:02;13.20;99.90
52397;DHT22;38322;53.108;6.308;2023-05-23T08:41:29;13.20;99.90
52397;DHT22;38322;53.108;6.308;2023-05-23T08:43:56;13.20;99.90
52397;DHT22;38322;53.108;6.308;2023-05-23T08:46:22;13.30;99.90
52397;DHT22;38322;53.108;6.308;2023-05-23T08:48:51;13.40;99.90
52397;DHT22;38322;53.108;6.308;2023-05-23T08:51:21;13.60;99.90
52397;DHT22;38322;53.108;6.308;2023-05-23T08:53:47;13.70;99.90
52397;DHT22;38322;53.108;6.308;2023-05-23T08:56:14;13.70;99.90
52397;DHT22;38322;53.108;6.308;2023-05-23T08:58:41;13.50;99.90
52397;DHT22;38322;53.108;6.308;2023-05-23T09:01:08;13.40;99.90
52397;DHT22;38322;53.108;6.308;2023-05-23T09:03:36;13.40;99.90
52397;DHT22;38322;53.108;6.308;2023-05-23T09:06:05;13.20;99.90
52397;DHT22;38322;53.108;6.308;2023-05-23T09:08:31;13.20;99.90
52397;DHT22;38322;53.108;6.308;2023-05-23T09:10:57;13.00;99.90
52397;DHT22;38322;53.108;6.308;2023-05-23T09:13:23;13.00;99.90
52397;DHT22;38322;53.108;6.308;2023-05-23T09:16:02;13.00;99.90
52397;DHT22;38322;53.108;6.308;2023-05-23T09:18:40;13.00;99.90
52397;DHT22;38322;53.108;6.308;2023-05-23T09:21:09;13.10;99.90
52397;DHT22;38322;53.108;6.308;2023-05-23T09:23:36;13.30;99.90
52397;DHT22;38322;53.108;6.308;2023-05-23T09:26:05;13.30;99.90
52397;DHT22;38322;53.108;6.308;2023-05-23T09:28:32;13.30;99.90
52397;DHT22;38322;53.108;6.308;2023-05-23T09:31:00;13.30;99.90
52397;DHT22;38322;53.108;6.308;2023-05-23T09:33:37;13.30;99.90
52397;DHT22;38322;53.108;6.308;2023-05-23T09:36:04;13.30;99.90
52397;DHT22;38322;53.108;6.308;2023-05-23T09:38:31;13.30;99.90
52397;DHT22;38322;53.108;6.308;2023-05-23T09:40:58;13.30;99.90
52397;DHT22;38322;53.108;6.308;2023-05-23T09:43:24;13.20;99.90
52397;DHT22;38322;53.108;6.308;2023-05-23T09:45:52;13.30;99.90
52397;DHT22;38322;53.108;6.308;2023-05-23T09:48:18;13.20;99.90
52397;DHT22;38322;53.108;6.308;2023-05-23T09:50:45;13.30;99.90
52397;DHT22;38322;53.108;6.308;2023-05-23T09:53:11;13.40;99.90
52397;DHT22;38322;53.108;6.308;2023-05-23T09:55:37;13.30;99.90
52397;DHT22;38322;53.108;6.308;2023-05-23T09:58:05;13.40;99.90
52397;DHT22;38322;53.108;6.308;2023-05-23T10:00:33;13.50;99.90
52397;DHT22;38322;53.108;6.308;2023-05-23T10:03:10;13.50;99.90
52397;DHT22;38322;53.108;6.308;2023-05-23T10:05:46;13.50;99.90
52397;DHT22;38322;53.108;6.308;2023-05-23T10:08:18;13.40;99.90
52397;DHT22;38322;53.108;6.308;2023-05-23T10:13:42;13.40;99.90
52397;DHT22;38322;53.108;6.308;2023-05-23T10:16:15;13.30;99.90
52397;DHT22;38322;53.108;6.308;2023-05-23T10:18:43;13.40;99.90
52397;DHT22;38322;53.108;6.308;2023-05-23T10:21:13;13.50;99.90
52397;DHT22;38322;53.108;6.308;2023-05-23T10:23:41;13.50;99.90
52397;DHT22;38322;53.108;6.308;2023-05-23T10:26:09;13.60;99.90
52397;DHT22;38322;53.108;6.308;2023-05-23T10:28:36;13.60;99.90
52397;DHT22;38322;53.108;6.308;2023-05-23T10:31:02;13.50;99.90
52397;DHT22;38322;53.108;6.308;2023-05-23T10:33:33;13.50;99.90
52397;DHT22;38322;53.108;6.308;2023-05-23T10:38:38;13.80;99.90
52397;DHT22;38322;53.108;6.308;2023-05-23T10:41:15;13.80;99.90
52397;DHT22;38322;53.108;6.308;2023-05-23T10:43:48;13.90;99.90
52397;DHT22;38322;53.108;6.308;2023-05-23T10:46:15;13.80;99.90
52397;DHT22;38322;53.108;6.308;2023-05-23T10:48:42;13.70;99.90
52397;DHT22;38322;53.108;6.308;2023-05-23T10:51:11;13.60;99.90
52397;DHT22;38322;53.108;6.308;2023-05-23T10:53:41;13.60;99.90
52397;DHT22;38322;53.108;6.308;2023-05-23T10:56:08;13.70;99.90
52397;DHT22;38322;53.108;6.308;2023-05-23T10:58:35;13.70;99.90
52397;DHT22;38322;53.108;6.308;2023-05-23T11:01:05;13.60;99.90
52397;DHT22;38322;53.108;6.308;2023-05-23T11:06:00;13.60;99.90
52397;DHT22;38322;53.108;6.308;2023-05-23T11:08:26;13.80;99.90
52397;DHT22;38322;53.108;6.308;2023-05-23T11:11:02;13.90;99.90
52397;DHT22;38322;53.108;6.308;2023-05-23T11:13:53;14.00;99.90
52397;DHT22;38322;53.108;6.308;2023-05-23T11:21:54;14.10;99.90
52397;DHT22;38322;53.108;6.308;2023-05-23T11:24:20;14.30;99.90
52397;DHT22;38322;53.108;6.308;2023-05-23T11:26:53;14.30;99.90
52397;DHT22;38322;53.108;6.308;2023-05-23T11:29:25;14.20;99.90
52397;DHT22;38322;53.108;6.308;2023-05-23T11:31:51;14.20;99.90
52397;DHT22;38322;53.108;6.308;2023-05-23T11:34:18;14.10;99.90
52397;DHT22;38322;53.108;6.308;2023-05-23T11:36:44;14.20;99.90
52397;DHT22;38322;53.108;6.308;2023-05-23T11:39:11;14.10;99.90
52397;DHT22;38322;53.108;6.308;2023-05-23T11:41:37;14.00;99.90
52397;DHT22;38322;53.108;6.308;2023-05-23T11:44:10;14.00;99.90
52397;DHT22;38322;53.108;6.308;2023-05-23T11:46:37;14.20;99.90
52397;DHT22;38322;53.108;6.308;2023-05-23T11:49:09;14.40;99.90
52397;DHT22;38322;53.108;6.308;2023-05-23T11:51:36;14.40;99.90
52397;DHT22;38322;53.108;6.308;2023-05-23T11:54:01;14.20;99.90
52397;DHT22;38322;53.108;6.308;2023-05-23T11:56:27;14.40;99.90
52397;DHT22;38322;53.108;6.308;2023-05-23T11:58:55;14.40;99.90
52397;DHT22;38322;53.108;6.308;2023-05-23T12:01:28;14.50;99.90
52397;DHT22;38322;53.108;6.308;2023-05-23T12:03:56;14.70;99.90
52397;DHT22;38322;53.108;6.308;2023-05-23T12:06:24;14.50;99.90
52397;DHT22;38322;53.108;6.308;2023-05-23T12:08:51;14.50;99.90
52397;DHT22;38322;53.108;6.308;2023-05-23T12:11:17;14.70;99.90
52397;DHT22;38322;53.108;6.308;2023-05-23T12:13:43;14.90;99.90
52397;DHT22;38322;53.108;6.308;2023-05-23T12:16:12;14.90;99.90
52397;DHT22;38322;53.108;6.308;2023-05-23T12:18:41;15.10;99.90
52397;DHT22;38322;53.108;6.308;2023-05-23T12:21:06;15.30;99.90
52397;DHT22;38322;53.108;6.308;2023-05-23T12:23:33;15.40;99.90
52397;DHT22;38322;53.108;6.308;2023-05-23T12:26:03;15.60;99.90
52397;DHT22;38322;53.108;6.308;2023-05-23T12:28:38;15.50;99.90
52397;DHT22;38322;53.108;6.308;2023-05-23T12:31:12;15.60;99.90
52397;DHT22;38322;53.108;6.308;2023-05-23T12:33:40;15.50;99.90
52397;DHT22;38322;53.108;6.308;2023-05-23T12:36:08;15.10;99.90
52397;DHT22;38322;53.108;6.308;2023-05-23T12:38:36;15.10;99.90
52397;DHT22;38322;53.108;6.308;2023-05-23T12:41:08;15.00;99.90
52397;DHT22;38322;53.108;6.308;2023-05-23T12:43:37;14.80;99.90
52397;DHT22;38322;53.108;6.308;2023-05-23T12:46:03;14.90;99.90
52397;DHT22;38322;53.108;6.308;2023-05-23T12:48:29;15.00;99.90
52397;DHT22;38322;53.108;6.308;2023-05-23T12:50:55;14.90;99.90
52397;DHT22;38322;53.108;6.308;2023-05-23T12:53:21;14.60;99.90
52397;DHT22;38322;53.108;6.308;2023-05-23T12:55:46;14.80;99.90
52397;DHT22;38322;53.108;6.308;2023-05-23T12:58:12;14.90;99.90
52397;DHT22;38322;53.108;6.308;2023-05-23T13:00:38;15.00;99.90
52397;DHT22;38322;53.108;6.308;2023-05-23T13:03:04;14.90;99.90
52397;DHT22;38322;53.108;6.308;2023-05-23T13:05:31;15.20;99.90
52397;DHT22;38322;53.108;6.308;2023-05-23T13:07:56;15.40;99.90
52397;DHT22;38322;53.108;6.308;2023-05-23T13:10:24;15.40;99.90
52397;DHT22;38322;53.108;6.308;2023-05-23T13:12:49;15.50;99.90
52397;DHT22;38322;53.108;6.308;2023-05-23T13:15:16;15.50;99.90
52397;DHT22;38322;53.108;6.308;2023-05-23T13:17:42;15.40;99.90
52397;DHT22;38322;53.108;6.308;2023-05-23T13:22:35;15.70;99.90
52397;DHT22;38322;53.108;6.308;2023-05-23T13:25:01;15.60;99.90
52397;DHT22;38322;53.108;6.308;2023-05-23T13:27:26;15.50;99.90
52397;DHT22;38322;53.108;6.308;2023-05-23T13:29:52;15.60;99.90
52397;DHT22;38322;53.108;6.308;2023-05-23T13:32:18;15.80;99.90
52397;DHT22;38322;53.108;6.308;2023-05-23T13:34:44;15.90;99.90
52397;DHT22;38322;53.108;6.308;2023-05-23T13:37:10;16.10;99.90
52397;DHT22;38322;53.108;6.308;2023-05-23T13:39:35;16.20;99.90
52397;DHT22;38322;53.108;6.308;2023-05-23T13:42:01;16.30;99.90
52397;DHT22;38322;53.108;6.308;2023-05-23T13:44:27;16.30;99.90
52397;DHT22;38322;53.108;6.308;2023-05-23T13:46:54;16.30;99.90
52397;DHT22;38322;53.108;6.308;2023-05-23T13:49:19;16.30;99.90
52397;DHT22;38322;53.108;6.308;2023-05-23T13:51:45;16.00;99.90
52397;DHT22;38322;53.108;6.308;2023-05-23T13:54:11;15.80;99.90
52397;DHT22;38322;53.108;6.308;2023-05-23T13:56:37;16.00;99.90
52397;DHT22;38322;53.108;6.308;2023-05-23T13:59:04;16.00;99.90
52397;DHT22;38322;53.108;6.308;2023-05-23T14:01:30;16.10;99.90
52397;DHT22;38322;53.108;6.308;2023-05-23T14:03:56;16.30;99.90
52397;DHT22;38322;53.108;6.308;2023-05-23T14:06:22;16.50;99.90
52397;DHT22;38322;53.108;6.308;2023-05-23T14:08:48;16.60;99.90
52397;DHT22;38322;53.108;6.308;2023-05-23T14:11:14;16.70;99.90
52397;DHT22;38322;53.108;6.308;2023-05-23T14:13:40;16.90;99.90
52397;DHT22;38322;53.108;6.308;2023-05-23T14:16:05;17.00;99.90
52397;DHT22;38322;53.108;6.308;2023-05-23T14:18:31;17.00;99.90
52397;DHT22;38322;53.108;6.308;2023-05-23T14:20:58;17.00;99.90
52397;DHT22;38322;53.108;6.308;2023-05-23T14:23:24;16.60;99.90
52397;DHT22;38322;53.108;6.308;2023-05-23T14:25:50;16.20;99.90
52397;DHT22;38322;53.108;6.308;2023-05-23T14:28:16;16.00;99.90
52397;DHT22;38322;53.108;6.308;2023-05-23T14:30:42;16.30;99.90
52397;DHT22;38322;53.108;6.308;2023-05-23T14:33:08;16.40;99.90
52397;DHT22;38322;53.108;6.308;2023-05-23T14:35:33;16.60;99.90
52397;DHT22;38322;53.108;6.308;2023-05-23T14:37:59;16.80;99.90
52397;DHT22;38322;53.108;6.308;2023-05-23T14:40:25;17.00;99.90
52397;DHT22;38322;53.108;6.308;2023-05-23T14:42:51;16.70;99.90
52397;DHT22;38322;53.108;6.308;2023-05-23T14:45:17;16.50;99.90
52397;DHT22;38322;53.108;6.308;2023-05-23T14:47:42;16.30;99.90
52397;DHT22;38322;53.108;6.308;2023-05-23T14:50:09;16.50;99.90
52397;DHT22;38322;53.108;6.308;2023-05-23T14:52:35;16.60;99.90
52397;DHT22;38322;53.108;6.308;2023-05-23T14:55:01;16.60;99.90
52397;DHT22;38322;53.108;6.308;2023-05-23T14:57:26;16.60;99.90
52397;DHT22;38322;53.108;6.308;2023-05-23T14:59:53;16.90;99.90
52397;DHT22;38322;53.108;6.308;2023-05-23T15:02:18;17.10;99.90
52397;DHT22;38322;53.108;6.308;2023-05-23T15:04:44;17.00;99.90
52397;DHT22;38322;53.108;6.308;2023-05-23T15:07:10;17.00;99.90
52397;DHT22;38322;53.108;6.308;2023-05-23T15:09:38;17.00;99.90
52397;DHT22;38322;53.108;6.308;2023-05-23T15:12:04;16.70;99.90
52397;DHT22;38322;53.108;6.308;2023-05-23T15:14:32;16.90;99.90
52397;DHT22;38322;53.108;6.308;2023-05-23T15:16:57;16.90;99.90
52397;DHT22;38322;53.108;6.308;2023-05-23T15:19:33;17.00;99.90
52397;DHT22;38322;53.108;6.308;2023-05-23T15:21:59;17.10;99.90
52397;DHT22;38322;53.108;6.308;2023-05-23T15:24:24;17.10;99.90
52397;DHT22;38322;53.108;6.308;2023-05-23T15:26:50;17.10;99.90
52397;DHT22;38322;53.108;6.308;2023-05-23T15:29:17;16.90;99.90
52397;DHT22;38322;53.108;6.308;2023-05-23T15:31:42;16.90;99.90
52397;DHT22;38322;53.108;6.308;2023-05-23T15:34:09;16.70;99.90
52397;DHT22;38322;53.108;6.308;2023-05-23T15:36:36;16.50;99.90
52397;DHT22;38322;53.108;6.308;2023-05-23T15:39:02;16.70;99.90
52397;DHT22;38322;53.108;6.308;2023-05-23T15:41:29;16.60;99.90
52397;DHT22;38322;53.108;6.308;2023-05-23T15:43:55;16.70;99.90
52397;DHT22;38322;53.108;6.308;2023-05-23T15:46:21;16.60;99.90
52397;DHT22;38322;53.108;6.308;2023-05-23T15:48:46;16.80;99.90
52397;DHT22;38322;53.108;6.308;2023-05-23T15:51:12;17.00;99.90
52397;DHT22;38322;53.108;6.308;2023-05-23T15:53:38;17.10;99.90
52397;DHT22;38322;53.108;6.308;2023-05-23T15:56:04;17.20;99.90
52397;DHT22;38322;53.108;6.308;2023-05-23T15:58:30;17.30;99.90
52397;DHT22;38322;53.108;6.308;2023-05-23T16:00:56;17.60;99.90
52397;DHT22;38322;53.108;6.308;2023-05-23T16:03:22;17.80;99.90
52397;DHT22;38322;53.108;6.308;2023-05-23T16:05:48;17.80;99.90
52397;DHT22;38322;53.108;6.308;2023-05-23T16:08:14;17.70;99.90
52397;DHT22;38322;53.108;6.308;2023-05-23T16:10:40;17.70;99.90
52397;DHT22;38322;53.108;6.308;2023-05-23T16:13:06;17.80;99.90
52397;DHT22;38322;53.108;6.308;2023-05-23T16:15:33;17.70;99.90
52397;DHT22;38322;53.108;6.308;2023-05-23T16:18:00;17.70;99.90
52397;DHT22;38322;53.108;6.308;2023-05-23T16:20:26;17.60;99.90
52397;DHT22;38322;53.108;6.308;2023-05-23T16:22:52;17.40;99.90
52397;DHT22;38322;53.108;6.308;2023-05-23T16:25:18;16.80;99.90
52397;DHT22;38322;53.108;6.308;2023-05-23T16:27:44;16.10;99.90
52397;DHT22;38322;53.108;6.308;2023-05-23T16:30:10;15.70;99.90
52397;DHT22;38322;53.108;6.308;2023-05-23T16:32:36;15.90;99.90
52397;DHT22;38322;53.108;6.308;2023-05-23T16:35:01;16.10;99.90
52397;DHT22;38322;53.108;6.308;2023-05-23T16:37:27;16.40;99.90
52397;DHT22;38322;53.108;6.308;2023-05-23T16:39:53;16.60;99.90
52397;DHT22;38322;53.108;6.308;2023-05-23T16:42:19;16.90;99.90
52397;DHT22;38322;53.108;6.308;2023-05-23T16:44:45;17.00;99.90
52397;DHT22;38322;53.108;6.308;2023-05-23T16:47:11;17.00;99.90
52397;DHT22;38322;53.108;6.308;2023-05-23T16:49:37;17.20;99.90
52397;DHT22;38322;53.108;6.308;2023-05-23T16:52:03;17.20;99.90
52397;DHT22;38322;53.108;6.308;2023-05-23T16:54:28;17.30;99.90
52397;DHT22;38322;53.108;6.308;2023-05-23T16:56:54;17.30;99.90
52397;DHT22;38322;53.108;6.308;2023-05-23T16:59:22;17.00;99.90
52397;DHT22;38322;53.108;6.308;2023-05-23T17:01:47;17.00;99.90
52397;DHT22;38322;53.108;6.308;2023-05-23T17:04:13;17.10;99.90
52397;DHT22;38322;53.108;6.308;2023-05-23T17:06:39;16.90;99.90
52397;DHT22;38322;53.108;6.308;2023-05-23T17:09:05;16.30;99.90
52397;DHT22;38322;53.108;6.308;2023-05-23T17:11:31;15.70;99.90
52397;DHT22;38322;53.108;6.308;2023-05-23T17:13:57;15.00;99.90
52397;DHT22;38322;53.108;6.308;2023-05-23T17:16:23;14.50;99.90
52397;DHT22;38322;53.108;6.308;2023-05-23T17:18:49;14.20;99.90
52397;DHT22;38322;53.108;6.308;2023-05-23T17:21:15;13.90;99.90
52397;DHT22;38322;53.108;6.308;2023-05-23T17:23:41;13.60;99.90
52397;DHT22;38322;53.108;6.308;2023-05-23T17:26:07;13.50;99.90
52397;DHT22;38322;53.108;6.308;2023-05-23T17:28:33;13.30;99.90
52397;DHT22;38322;53.108;6.308;2023-05-23T17:30:59;13.30;99.90
52397;DHT22;38322;53.108;6.308;2023-05-23T17:33:25;13.40;99.90
52397;DHT22;38322;53.108;6.308;2023-05-23T17:35:51;13.40;99.90
52397;DHT22;38322;53.108;6.308;2023-05-23T17:38:17;13.50;99.90
52397;DHT22;38322;53.108;6.308;2023-05-23T17:40:43;13.70;99.90
52397;DHT22;38322;53.108;6.308;2023-05-23T17:43:09;13.70;99.90
52397;DHT22;38322;53.108;6.308;2023-05-23T17:45:35;13.50;99.90
52397;DHT22;38322;53.108;6.308;2023-05-23T17:48:01;13.20;99.90
52397;DHT22;38322;53.108;6.308;2023-05-23T17:50:28;13.10;99.90
52397;DHT22;38322;53.108;6.308;2023-05-23T17:52:54;12.90;99.90
52397;DHT22;38322;53.108;6.308;2023-05-23T17:55:20;12.80;99.90
52397;DHT22;38322;53.108;6.308;2023-05-23T17:57:46;12.70;99.90
52397;DHT22;38322;53.108;6.308;2023-05-23T18:00:12;12.50;99.90
52397;DHT22;38322;53.108;6.308;2023-05-23T18:02:38;12.50;99.90
52397;DHT22;38322;53.108;6.308;2023-05-23T18:05:04;12.40;99.90
52397;DHT22;38322;53.108;6.308;2023-05-23T18:07:31;12.40;99.90
52397;DHT22;38322;53.108;6.308;2023-05-23T18:09:57;12.30;99.90
52397;DHT22;38322;53.108;6.308;2023-05-23T18:12:24;12.30;99.90
52397;DHT22;38322;53.108;6.308;2023-05-23T18:14:51;12.30;99.90
52397;DHT22;38322;53.108;6.308;2023-05-23T18:17:17;12.20;99.90
52397;DHT22;38322;53.108;6.308;2023-05-23T18:19:44;12.10;99.90
52397;DHT22;38322;53.108;6.308;2023-05-23T18:22:12;12.00;99.90
52397;DHT22;38322;53.108;6.308;2023-05-23T18:24:41;12.00;99.90
52397;DHT22;38322;53.108;6.308;2023-05-23T18:27:07;12.00;99.90
52397;DHT22;38322;53.108;6.308;2023-05-23T18:29:34;12.00;99.90
52397;DHT22;38322;53.108;6.308;2023-05-23T18:32:00;12.10;99.90
52397;DHT22;38322;53.108;6.308;2023-05-23T18:34:25;12.10;99.90
52397;DHT22;38322;53.108;6.308;2023-05-23T18:36:51;12.10;99.90
52397;DHT22;38322;53.108;6.308;2023-05-23T18:39:17;12.10;99.90
52397;DHT22;38322;53.108;6.308;2023-05-23T18:41:45;12.10;99.90
52397;DHT22;38322;53.108;6.308;2023-05-23T18:44:11;12.00;99.90
52397;DHT22;38322;53.108;6.308;2023-05-23T18:46:37;12.00;99.90
52397;DHT22;38322;53.108;6.308;2023-05-23T18:49:02;12.00;99.90
52397;DHT22;38322;53.108;6.308;2023-05-23T18:51:30;12.00;99.90
52397;DHT22;38322;53.108;6.308;2023-05-23T18:53:57;11.90;99.90
52397;DHT22;38322;53.108;6.308;2023-05-23T18:56:23;11.80;99.90
52397;DHT22;38322;53.108;6.308;2023-05-23T18:58:49;11.80;99.90
52397;DHT22;38322;53.108;6.308;2023-05-23T19:01:16;11.80;99.90
52397;DHT22;38322;53.108;6.308;2023-05-23T19:03:42;11.80;99.90
52397;DHT22;38322;53.108;6.308;2023-05-23T19:06:10;11.80;99.90
52397;DHT22;38322;53.108;6.308;2023-05-23T19:08:37;11.80;99.90
52397;DHT22;38322;53.108;6.308;2023-05-23T19:11:02;11.80;99.90
52397;DHT22;38322;53.108;6.308;2023-05-23T19:13:30;11.70;99.90
52397;DHT22;38322;53.108;6.308;2023-05-23T19:15:55;11.70;99.90
52397;DHT22;38322;53.108;6.308;2023-05-23T19:18:21;11.60;99.90
52397;DHT22;38322;53.108;6.308;2023-05-23T19:20:47;11.60;99.90
52397;DHT22;38322;53.108;6.308;2023-05-23T19:23:16;11.60;99.90
52397;DHT22;38322;53.108;6.308;2023-05-23T19:25:43;11.50;99.90
52397;DHT22;38322;53.108;6.308;2023-05-23T19:28:09;11.50;99.90
52397;DHT22;38322;53.108;6.308;2023-05-23T19:30:35;11.40;99.90
52397;DHT22;38322;53.108;6.308;2023-05-23T19:33:03;11.40;99.90
52397;DHT22;38322;53.108;6.308;2023-05-23T19:35:30;11.40;99.90
52397;DHT22;38322;53.108;6.308;2023-05-23T19:37:56;11.40;99.90
52397;DHT22;38322;53.108;6.308;2023-05-23T19:40:22;11.40;99.90
52397;DHT22;38322;53.108;6.308;2023-05-23T19:42:49;11.30;99.90
52397;DHT22;38322;53.108;6.308;2023-05-23T19:45:16;11.30;99.90
52397;DHT22;38322;53.108;6.308;2023-05-23T19:47:43;11.30;99.90
52397;DHT22;38322;53.108;6.308;2023-05-23T19:50:10;11.10;99.90
52397;DHT22;38322;53.108;6.308;2023-05-23T19:52:39;11.20;99.90
52397;DHT22;38322;53.108;6.308;2023-05-23T19:55:05;11.10;99.90
52397;DHT22;38322;53.108;6.308;2023-05-23T19:57:31;11.00;99.90
52397;DHT22;38322;53.108;6.308;2023-05-23T19:59:57;10.90;99.90
